Time;durP1;ratioP1;P1;durP2;ratioP2;P2;SDS_P1;SDS_P2;PMS_P1;PMS_P2;Temp;Humidity;BMP_temperature;BMP_pressure;BME280_temperature;BME280_humidity;BME280_pressure;Samples;Min_cycle;Max_cycle;Signal;HPM_P1;HPM_P2
2021/03/07 00:01:52;;;;;;;8.77;7.20;;;0.10;55.90;;;;;;5049682;28;20215;-81
2021/03/07 00:04:18;;;;;;;13.63;7.80;;;0.10;55.90;;;;;;5038202;28;20662;-82
2021/03/07 00:06:45;;;;;;;8.70;7.43;;;0.20;56.00;;;;;;5033386;28;20672;-82
2021/03/07 00:09:11;;;;;;;12.55;8.98;;;0.30;56.00;;;;;;5048487;28;20222;-81
2021/03/07 00:11:39;;;;;;;9.40;8.20;;;0.30;56.10;;;;;;5030194;28;20291;-81
2021/03/07 00:14:05;;;;;;;12.93;9.70;;;0.40;56.00;;;;;;5034492;28;20223;-81
2021/03/07 00:16:32;;;;;;;11.15;9.95;;;0.40;56.30;;;;;;5049334;28;20207;-82
2021/03/07 00:18:58;;;;;;;14.55;11.13;;;0.40;56.20;;;;;;5034161;28;20239;-81
2021/03/07 00:21:25;;;;;;;15.05;12.25;;;0.40;56.60;;;;;;5034610;28;20230;-82
2021/03/07 00:23:51;;;;;;;16.08;11.25;;;0.50;56.40;;;;;;5053073;28;20273;-81
2021/03/07 00:26:18;;;;;;;11.05;9.65;;;0.40;56.20;;;;;;5041025;28;20239;-81
2021/03/07 00:28:45;;;;;;;10.88;9.43;;;0.30;56.10;;;;;;5044699;28;20548;-81
2021/03/07 00:31:11;;;;;;;14.00;10.60;;;0.20;55.60;;;;;;5047579;28;20195;-81
2021/03/07 00:33:38;;;;;;;11.20;10.10;;;0.10;56.40;;;;;;5050446;28;20195;-82
2021/03/07 00:36:04;;;;;;;10.65;8.80;;;0.20;56.60;;;;;;5040664;28;20242;-82
2021/03/07 00:38:31;;;;;;;15.27;10.48;;;0.20;55.90;;;;;;5036505;28;20219;-82
2021/03/07 00:40:57;;;;;;;12.95;10.10;;;0.20;55.80;;;;;;5034094;28;20751;-82
2021/03/07 00:43:24;;;;;;;11.20;9.70;;;0.20;55.60;;;;;;5048879;28;20223;-82
2021/03/07 00:45:51;;;;;;;9.70;8.40;;;0.50;55.90;;;;;;5050957;28;20634;-82
2021/03/07 00:48:17;;;;;;;10.15;8.20;;;0.50;55.30;;;;;;5048859;28;20663;-82
2021/03/07 00:50:44;;;;;;;11.13;7.80;;;0.50;54.80;;;;;;5038408;28;20209;-81
2021/03/07 00:53:10;;;;;;;9.55;7.18;;;0.60;54.20;;;;;;5034390;28;20212;-82
2021/03/07 00:55:37;;;;;;;9.35;7.05;;;0.60;53.60;;;;;;5033994;28;20196;-81
2021/03/07 00:58:03;;;;;;;6.57;5.97;;;0.80;53.00;;;;;;5046504;28;20739;-81
2021/03/07 01:00:31;;;;;;;7.32;6.60;;;0.90;52.50;;;;;;5070866;28;20195;-82
2021/03/07 01:02:59;;;;;;;7.70;6.90;;;0.80;52.30;;;;;;5059145;28;20652;-81
2021/03/07 01:05:27;;;;;;;7.75;6.95;;;0.80;52.20;;;;;;5046876;28;20200;-82
2021/03/07 01:07:53;;;;;;;8.40;6.63;;;0.90;52.30;;;;;;5041517;28;20201;-82
2021/03/07 01:10:24;;;;;;;8.40;6.60;;;0.90;52.30;;;;;;5033543;28;20216;-81
2021/03/07 01:12:52;;;;;;;9.65;6.10;;;1.10;52.70;;;;;;5035953;28;20652;-81
2021/03/07 01:15:21;;;;;;;8.18;7.38;;;1.00;52.50;;;;;;5051558;28;20196;-82
2021/03/07 01:17:47;;;;;;;8.18;7.38;;;1.00;52.70;;;;;;5042946;28;20235;-82
2021/03/07 01:20:17;;;;;;;8.77;6.43;;;0.90;52.70;;;;;;5036293;28;20251;-82
2021/03/07 01:22:44;;;;;;;8.77;6.30;;;0.70;52.60;;;;;;5053138;28;20223;-81
2021/03/07 01:25:11;;;;;;;8.77;7.05;;;0.40;52.40;;;;;;5035102;28;20208;-81
2021/03/07 01:27:39;;;;;;;7.55;6.72;;;0.20;53.00;;;;;;5041459;28;20639;-81
2021/03/07 01:30:07;;;;;;;10.38;7.20;;;0.10;53.50;;;;;;5048320;28;20199;-82
2021/03/07 01:32:33;;;;;;;9.10;7.60;;;0.10;54.00;;;;;;5050711;28;20200;-81
2021/03/07 01:34:59;;;;;;;8.55;6.85;;;0.40;54.50;;;;;;5048131;28;20664;-82
2021/03/07 01:37:27;;;;;;;8.45;7.13;;;0.30;54.90;;;;;;5053017;28;20211;-81
2021/03/07 01:39:54;;;;;;;9.55;6.68;;;0.10;54.60;;;;;;5051329;28;20223;-81
2021/03/07 01:42:21;;;;;;;9.07;7.65;;;0.20;55.60;;;;;;5035765;28;20235;-81
2021/03/07 01:44:47;;;;;;;10.13;7.22;;;0.30;55.10;;;;;;5047317;28;20211;-81
2021/03/07 01:47:18;;;;;;;8.00;7.20;;;0.20;55.30;;;;;;5052624;28;20216;-81
2021/03/07 01:49:45;;;;;;;8.82;7.65;;;0.00;55.70;;;;;;5033017;28;20200;-81
2021/03/07 01:52:11;;;;;;;9.52;7.80;;;0.10;56.30;;;;;;5047464;28;20239;-81
2021/03/07 01:54:38;;;;;;;12.10;8.90;;;0.20;55.80;;;;;;5037588;28;20844;-82
2021/03/07 01:57:07;;;;;;;8.98;8.07;;;0.20;55.50;;;;;;5032561;28;20200;-81
2021/03/07 01:59:34;;;;;;;11.10;8.98;;;0.20;55.50;;;;;;5054139;28;20211;-81
2021/03/07 02:02:01;;;;;;;10.38;9.43;;;0.40;55.70;;;;;;5053491;28;20205;-81
2021/03/07 02:04:28;;;;;;;11.63;8.65;;;0.30;55.20;;;;;;5031457;28;20212;-81
2021/03/07 02:06:56;;;;;;;13.07;10.02;;;0.20;55.00;;;;;;5035546;28;20197;-81
2021/03/07 02:09:25;;;;;;;10.68;9.35;;;0.20;55.10;;;;;;5034011;28;20200;-81
2021/03/07 02:11:54;;;;;;;10.95;8.75;;;0.20;55.20;;;;;;5044073;28;20204;-81
2021/03/07 02:14:22;;;;;;;9.77;8.40;;;0.20;55.40;;;;;;5040473;28;20207;-81
2021/03/07 02:16:49;;;;;;;12.25;9.27;;;0.30;55.60;;;;;;5049722;28;20219;-81
2021/03/07 02:19:21;;;;;;;10.07;9.05;;;0.20;55.40;;;;;;5058799;28;20212;-81
2021/03/07 02:21:51;;;;;;;12.15;10.05;;;0.20;55.60;;;;;;5056301;28;20312;-81
2021/03/07 02:24:20;;;;;;;12.45;9.48;;;0.20;55.60;;;;;;5057677;28;20705;-81
2021/03/07 02:26:49;;;;;;;13.27;9.13;;;0.30;55.70;;;;;;5051462;28;20270;-81
2021/03/07 02:29:19;;;;;;;10.57;9.35;;;0.20;55.50;;;;;;5052036;28;20203;-82
2021/03/07 02:31:50;;;;;;;10.93;9.02;;;0.20;55.60;;;;;;5041190;28;20204;-82
2021/03/07 02:34:27;;;;;;;9.38;8.43;;;0.30;55.90;;;;;;5031858;28;20650;-82
2021/03/07 02:36:59;;;;;;;12.70;8.48;;;0.30;55.60;;;;;;5064436;28;20626;-82
2021/03/07 02:39:31;;;;;;;13.57;8.32;;;0.20;55.40;;;;;;5048250;28;20244;-82
2021/03/07 02:42:02;;;;;;;10.57;8.00;;;0.10;55.40;;;;;;5035302;28;20204;-82
2021/03/07 02:44:32;;;;;;;11.00;8.70;;;0.20;55.50;;;;;;5031276;28;20215;-82
2021/03/07 02:47:01;;;;;;;12.13;8.75;;;0.20;55.50;;;;;;5042322;28;20211;-82
2021/03/07 02:49:31;;;;;;;13.13;8.98;;;0.30;55.90;;;;;;5039668;28;20616;-82
2021/03/07 02:52:00;;;;;;;13.10;8.60;;;0.30;55.90;;;;;;5032699;28;20197;-81
2021/03/07 02:54:30;;;;;;;10.27;8.55;;;0.30;55.80;;;;;;5030619;28;20275;-82
2021/03/07 02:57:00;;;;;;;9.50;8.10;;;0.20;55.40;;;;;;5031841;28;20212;-82
2021/03/07 02:59:28;;;;;;;8.40;7.45;;;0.30;55.40;;;;;;5030993;28;20876;-82
2021/03/07 03:01:59;;;;;;;8.70;7.50;;;0.30;55.20;;;;;;5042394;28;20539;-82
2021/03/07 03:04:29;;;;;;;10.88;8.75;;;0.30;55.00;;;;;;5042966;28;20197;-82
2021/03/07 03:06:59;;;;;;;11.48;8.90;;;0.20;55.10;;;;;;5032676;28;20897;-81
2021/03/07 03:09:29;;;;;;;16.33;9.10;;;0.20;55.40;;;;;;5046727;28;20207;-82
2021/03/07 03:11:58;;;;;;;10.93;8.45;;;0.30;55.00;;;;;;5039528;28;20215;-82
2021/03/07 03:14:26;;;;;;;10.25;8.30;;;0.30;54.70;;;;;;5036919;28;20253;-82
2021/03/07 03:16:56;;;;;;;10.35;8.25;;;0.30;55.00;;;;;;5051317;28;20241;-82
2021/03/07 03:19:25;;;;;;;10.57;8.73;;;0.40;55.10;;;;;;5039818;28;20224;-82
2021/03/07 03:21:52;;;;;;;10.48;8.20;;;0.30;54.80;;;;;;5040678;28;20200;-81
2021/03/07 03:24:19;;;;;;;10.05;7.18;;;0.30;55.00;;;;;;5050561;28;20460;-81
2021/03/07 03:26:46;;;;;;;11.43;7.72;;;0.20;55.10;;;;;;5043121;28;20200;-81
2021/03/07 03:29:13;;;;;;;13.68;8.75;;;0.40;55.30;;;;;;5065945;28;20250;-81
2021/03/07 03:31:40;;;;;;;8.15;7.22;;;0.20;55.40;;;;;;5042600;28;20197;-82
2021/03/07 03:34:07;;;;;;;8.98;7.43;;;0.20;55.10;;;;;;5041445;28;20557;-82
2021/03/07 03:36:36;;;;;;;8.15;7.35;;;0.20;55.10;;;;;;5041714;28;20226;-82
2021/03/07 03:39:08;;;;;;;8.55;7.63;;;0.10;55.00;;;;;;5050358;28;20212;-82
2021/03/07 03:41:36;;;;;;;11.50;7.97;;;0.20;55.10;;;;;;5043406;28;20213;-82
2021/03/07 03:44:07;;;;;;;11.52;8.52;;;0.20;55.10;;;;;;5038605;28;20212;-82
2021/03/07 03:46:39;;;;;;;9.25;8.00;;;0.20;55.20;;;;;;5030674;28;20211;-82
2021/03/07 03:49:13;;;;;;;8.93;8.10;;;0.10;55.40;;;;;;5039377;28;20650;-82
2021/03/07 03:51:42;;;;;;;9.20;7.50;;;0.20;55.20;;;;;;5040937;28;20219;-82
2021/03/07 03:54:10;;;;;;;12.35;7.72;;;0.10;55.00;;;;;;5033197;28;20200;-81
2021/03/07 03:56:37;;;;;;;10.77;8.15;;;0.00;55.20;;;;;;5050191;28;20768;-81
2021/03/07 03:59:06;;;;;;;9.88;7.93;;;0.10;55.30;;;;;;5048275;28;20774;-82
2021/03/07 04:01:36;;;;;;;9.20;7.90;;;0.00;55.40;;;;;;5037243;28;20242;-82
2021/03/07 04:04:05;;;;;;;8.00;7.20;;;0.10;55.60;;;;;;5047965;28;20589;-82
2021/03/07 04:06:32;;;;;;;10.02;8.38;;;0.00;55.50;;;;;;5031782;28;20204;-82
2021/03/07 04:08:59;;;;;;;10.65;8.23;;;-0.10;55.40;;;;;;5030730;28;20292;-82
2021/03/07 04:11:26;;;;;;;10.10;6.97;;;0.00;55.40;;;;;;5031858;28;20204;-82
2021/03/07 04:13:54;;;;;;;7.72;6.95;;;0.10;55.20;;;;;;5036666;28;20204;-82
2021/03/07 04:16:23;;;;;;;13.48;7.90;;;0.10;55.10;;;;;;5050485;28;20681;-82
2021/03/07 04:18:50;;;;;;;8.20;7.40;;;0.10;55.20;;;;;;5030676;28;20307;-82
2021/03/07 04:21:19;;;;;;;8.70;7.53;;;0.10;55.70;;;;;;5034799;28;20200;-82
2021/03/07 04:23:46;;;;;;;9.65;7.50;;;0.00;55.50;;;;;;5035835;28;20303;-82
2021/03/07 04:26:13;;;;;;;10.15;7.53;;;0.00;55.80;;;;;;5038606;28;20200;-82
2021/03/07 04:28:40;;;;;;;9.02;7.10;;;0.00;56.20;;;;;;5070822;28;20290;-82
2021/03/07 04:31:08;;;;;;;8.10;7.20;;;-0.10;55.80;;;;;;5051734;28;20279;-82
2021/03/07 04:33:37;;;;;;;9.18;7.38;;;-0.30;56.10;;;;;;5045160;28;20193;-82
2021/03/07 04:36:06;;;;;;;7.47;6.57;;;-0.40;56.30;;;;;;5030593;28;20201;-82
2021/03/07 04:38:34;;;;;;;8.48;7.55;;;-0.30;56.40;;;;;;5034201;28;20192;-82
2021/03/07 04:41:03;;;;;;;8.82;7.07;;;-0.30;56.50;;;;;;5048446;28;20250;-82
2021/03/07 04:43:44;;;;;;;10.18;7.95;;;-0.20;56.70;;;;;;5031494;28;20192;-82
2021/03/07 04:46:12;;;;;;;7.63;6.85;;;-0.20;56.50;;;;;;5030180;28;20286;-82
2021/03/07 04:48:41;;;;;;;12.48;9.30;;;-0.40;56.60;;;;;;5030030;28;20200;-82
2021/03/07 04:51:08;;;;;;;10.15;7.97;;;-0.20;56.70;;;;;;5033289;28;20243;-82
2021/03/07 04:53:36;;;;;;;11.05;9.75;;;-0.20;56.60;;;;;;5044713;28;20189;-82
2021/03/07 04:56:04;;;;;;;11.52;10.10;;;-0.30;56.60;;;;;;5029756;28;20193;-82
2021/03/07 04:58:33;;;;;;;12.07;10.52;;;-0.30;56.70;;;;;;5042603;28;20200;-82
2021/03/07 05:01:04;;;;;;;12.00;10.80;;;-0.30;56.70;;;;;;5046150;28;20204;-82
2021/03/07 05:03:32;;;;;;;12.48;11.18;;;-0.30;56.80;;;;;;5051786;28;20235;-82
2021/03/07 05:06:00;;;;;;;12.75;11.43;;;-0.10;57.30;;;;;;5049920;28;20212;-82
2021/03/07 05:08:29;;;;;;;12.15;10.60;;;-0.20;56.70;;;;;;5048373;28;20212;-82
2021/03/07 05:10:57;;;;;;;12.35;10.60;;;-0.30;56.60;;;;;;5032839;28;20201;-82
2021/03/07 05:13:24;;;;;;;13.98;10.45;;;-0.30;57.00;;;;;;5052525;28;20196;-82
2021/03/07 05:15:52;;;;;;;12.35;9.73;;;-0.20;57.50;;;;;;5053753;28;20235;-82
2021/03/07 05:18:19;;;;;;;12.48;10.02;;;-0.30;57.50;;;;;;5034157;28;20277;-82
2021/03/07 05:20:46;;;;;;;11.00;9.30;;;-0.40;57.40;;;;;;5037171;28;20233;-82
2021/03/07 05:23:15;;;;;;;11.23;9.10;;;-0.40;57.20;;;;;;5033215;28;20319;-82
2021/03/07 05:25:42;;;;;;;9.13;8.15;;;-0.40;57.50;;;;;;5043165;28;20253;-82
2021/03/07 05:28:09;;;;;;;9.48;8.40;;;-0.40;57.20;;;;;;5063308;28;20265;-82
2021/03/07 05:30:37;;;;;;;11.13;9.93;;;-0.50;57.70;;;;;;5053309;28;20220;-82
2021/03/07 05:33:05;;;;;;;11.52;9.18;;;-0.50;57.70;;;;;;5045169;28;20673;-82
2021/03/07 05:35:32;;;;;;;11.05;9.18;;;-0.50;57.60;;;;;;5053066;28;20200;-82
2021/03/07 05:37:59;;;;;;;9.98;8.32;;;-0.60;57.50;;;;;;5036633;28;20211;-83
2021/03/07 05:40:27;;;;;;;9.85;8.38;;;-0.60;57.50;;;;;;5042511;28;20623;-82
2021/03/07 05:42:58;;;;;;;10.05;7.90;;;-0.50;58.20;;;;;;5039809;28;20212;-82
2021/03/07 05:45:26;;;;;;;8.48;7.68;;;-0.40;57.90;;;;;;5053267;28;20200;-82
2021/03/07 05:47:53;;;;;;;9.07;7.65;;;-0.60;57.80;;;;;;5050335;28;20228;-83
2021/03/07 05:50:21;;;;;;;10.55;9.07;;;-0.60;58.30;;;;;;5053369;28;20198;-82
2021/03/07 05:52:49;;;;;;;8.82;7.80;;;-0.70;58.10;;;;;;5065535;28;20204;-82
2021/03/07 05:55:17;;;;;;;9.55;8.25;;;-0.50;58.50;;;;;;5043097;28;20207;-83
2021/03/07 05:57:46;;;;;;;12.43;8.35;;;-0.80;57.90;;;;;;5033036;28;20299;-82
2021/03/07 06:00:14;;;;;;;10.00;8.00;;;-0.80;58.60;;;;;;5046691;28;20222;-82
2021/03/07 06:02:42;;;;;;;11.63;8.60;;;-0.90;58.60;;;;;;5045928;28;20582;-83
2021/03/07 06:05:11;;;;;;;14.38;9.05;;;-0.90;58.90;;;;;;5032903;28;20203;-82
2021/03/07 06:07:39;;;;;;;10.93;8.60;;;-0.80;59.00;;;;;;5044928;28;20207;-82
2021/03/07 06:10:15;;;;;;;11.25;8.98;;;-0.70;58.80;;;;;;5035443;28;20203;-82
2021/03/07 06:12:42;;;;;;;11.38;9.00;;;-0.60;58.80;;;;;;5051906;28;20222;-81
2021/03/07 06:15:13;;;;;;;9.63;8.30;;;-0.70;58.30;;;;;;5051385;28;20222;-86
2021/03/07 06:17:42;;;;;;;13.27;8.00;;;-0.70;58.30;;;;;;5045646;28;20204;-87
2021/03/07 06:20:10;;;;;;;9.60;7.80;;;-0.50;58.50;;;;;;5035742;28;20221;-86
2021/03/07 06:22:38;;;;;;;9.82;8.82;;;-0.60;58.10;;;;;;5039853;28;20192;-86
2021/03/07 06:25:07;;;;;;;8.93;8.00;;;-0.40;58.40;;;;;;5038179;28;20220;-86
2021/03/07 06:27:35;;;;;;;11.65;8.77;;;-0.50;58.30;;;;;;5041989;28;20212;-86
2021/03/07 06:30:05;;;;;;;8.98;8.02;;;-0.60;58.20;;;;;;5032553;28;20228;-87
2021/03/07 06:32:35;;;;;;;9.68;8.38;;;-0.60;58.90;;;;;;5041839;28;20224;-87
2021/03/07 06:35:03;;;;;;;9.95;8.95;;;-0.40;59.20;;;;;;5048864;28;20200;-87
2021/03/07 06:37:29;;;;;;;12.30;9.45;;;-0.40;58.60;;;;;;5050937;28;20206;-87
2021/03/07 06:39:56;;;;;;;10.32;9.25;;;-0.20;58.90;;;;;;5036341;28;20303;-87
2021/03/07 06:42:23;;;;;;;9.55;8.00;;;0.00;58.90;;;;;;5041152;28;20291;-87
2021/03/07 06:44:55;;;;;;;11.93;8.93;;;-0.10;58.20;;;;;;5038951;28;20203;-87
2021/03/07 06:47:23;;;;;;;10.52;8.55;;;0.00;58.10;;;;;;5051017;28;20200;-86
2021/03/07 06:50:07;;;;;;;10.23;9.23;;;0.00;58.20;;;;;;5034505;28;20204;-87
2021/03/07 06:52:34;;;;;;;12.75;10.30;;;0.10;58.70;;;;;;5032364;28;20201;-86
2021/03/07 06:55:03;;;;;;;12.25;9.95;;;0.00;58.80;;;;;;5044063;28;20200;-86
2021/03/07 06:57:30;;;;;;;9.68;8.43;;;0.10;59.00;;;;;;5051410;28;20204;-86
2021/03/07 06:59:57;;;;;;;10.38;8.38;;;0.10;59.10;;;;;;5038573;28;20221;-86
2021/03/07 07:02:23;;;;;;;11.43;9.70;;;0.30;59.40;;;;;;5032427;28;20201;-86
2021/03/07 07:04:51;;;;;;;9.60;8.50;;;0.40;59.30;;;;;;5035973;28;20196;-86
2021/03/07 07:07:20;;;;;;;10.10;8.90;;;0.30;59.20;;;;;;5031419;28;20703;-86
2021/03/07 07:09:48;;;;;;;13.90;9.02;;;0.60;58.80;;;;;;5032556;28;21006;-86
2021/03/07 07:12:21;;;;;;;11.57;8.88;;;0.90;58.40;;;;;;5048844;28;20200;-86
2021/03/07 07:14:49;;;;;;;9.60;8.18;;;1.10;58.20;;;;;;5041500;28;20208;-85
2021/03/07 07:17:18;;;;;;;12.73;9.10;;;1.30;58.30;;;;;;5042353;28;20258;-86
2021/03/07 07:19:47;;;;;;;18.25;10.10;;;1.20;58.90;;;;;;5047050;28;20224;-86
2021/03/07 07:22:16;;;;;;;13.70;9.88;;;1.40;58.50;;;;;;5031633;28;20290;-86
2021/03/07 07:24:43;;;;;;;14.00;10.20;;;1.30;57.70;;;;;;5044105;28;20208;-86
2021/03/07 07:27:10;;;;;;;11.10;9.98;;;1.50;57.40;;;;;;5057704;28;20200;-86
2021/03/07 07:29:38;;;;;;;12.48;10.45;;;1.80;57.10;;;;;;5051165;28;20665;-85
2021/03/07 07:32:09;;;;;;;12.60;10.65;;;2.20;56.90;;;;;;5041665;28;20320;-85
2021/03/07 07:34:39;;;;;;;15.52;10.23;;;2.20;56.40;;;;;;5035501;28;20273;-85
2021/03/07 07:37:09;;;;;;;12.15;9.52;;;2.40;56.30;;;;;;5045847;28;20201;-85
2021/03/07 07:39:39;;;;;;;15.13;11.45;;;2.40;55.90;;;;;;5042306;28;20216;-87
2021/03/07 07:42:20;;;;;;;11.13;9.95;;;2.50;55.90;;;;;;5038716;28;20204;-87
2021/03/07 07:44:47;;;;;;;11.98;9.52;;;2.60;56.10;;;;;;5044867;28;20677;-87
2021/03/07 07:47:14;;;;;;;10.70;9.55;;;2.70;56.10;;;;;;5050496;28;20208;-86
2021/03/07 07:49:46;;;;;;;11.45;9.57;;;2.80;55.90;;;;;;5037191;28;20662;-87
2021/03/07 07:52:34;;;;;;;11.60;9.50;;;2.90;55.90;;;;;;5029804;28;20200;-86
2021/03/07 07:55:11;;;;;;;12.77;9.75;;;2.90;55.60;;;;;;5027573;28;20208;-87
2021/03/07 07:57:50;;;;;;;11.23;8.05;;;3.10;55.40;;;;;;5029616;28;20289;-87
2021/03/07 08:00:48;;;;;;;12.20;9.77;;;3.20;55.30;;;;;;5030111;28;20290;-87
2021/03/07 08:03:34;;;;;;;12.32;9.25;;;3.30;55.10;;;;;;5029364;28;20212;-86
2021/03/07 08:06:01;;;;;;;12.80;9.95;;;3.30;55.00;;;;;;5030242;28;20211;-86
2021/03/07 08:08:36;;;;;;;9.43;8.43;;;3.40;55.20;;;;;;5030622;28;20200;-87
2021/03/07 08:11:05;;;;;;;11.02;9.55;;;3.50;54.90;;;;;;5029842;28;20214;-87
2021/03/07 08:13:49;;;;;;;11.10;9.63;;;3.80;54.90;;;;;;5030451;28;20223;-87
2021/03/07 08:16:39;;;;;;;14.45;10.25;;;3.90;54.80;;;;;;5030383;28;20192;-86
2021/03/07 08:19:06;;;;;;;10.68;9.25;;;4.00;54.40;;;;;;5030204;28;20224;-87
2021/03/07 08:22:03;;;;;;;15.35;10.98;;;3.90;54.00;;;;;;5030313;28;20206;-86
2021/03/07 08:24:52;;;;;;;12.00;9.05;;;3.80;54.60;;;;;;5029754;28;20219;-87
2021/03/07 08:27:34;;;;;;;14.95;10.55;;;4.10;55.30;;;;;;5049391;28;20203;-87
2021/03/07 08:30:00;;;;;;;13.82;9.30;;;4.30;54.90;;;;;;5070394;28;20207;-87
2021/03/07 08:32:33;;;;;;;12.52;9.82;;;4.60;54.90;;;;;;5070472;28;20195;-87
2021/03/07 08:35:01;;;;;;;14.50;10.82;;;4.70;54.50;;;;;;5070315;28;20207;-87
2021/03/07 08:37:30;;;;;;;11.77;9.57;;;4.30;54.00;;;;;;5070719;28;20199;-88
2021/03/07 08:40:28;;;;;;;12.55;10.05;;;4.40;54.00;;;;;;5073897;28;20230;-87
2021/03/07 08:42:57;;;;;;;11.65;10.45;;;4.60;54.30;;;;;;5073697;28;20207;-87
2021/03/07 08:45:25;;;;;;;11.00;9.98;;;4.60;54.00;;;;;;5073646;28;20248;-87
2021/03/07 08:47:57;;;;;;;10.63;9.50;;;4.80;54.30;;;;;;5074355;28;20265;-88
2021/03/07 08:50:24;;;;;;;11.65;9.70;;;5.00;54.20;;;;;;5074223;28;20206;-87
2021/03/07 08:52:51;;;;;;;12.75;9.98;;;5.00;53.90;;;;;;5073709;28;20284;-88
2021/03/07 08:55:18;;;;;;;12.05;9.95;;;5.10;53.80;;;;;;5074133;28;20241;-88
2021/03/07 08:57:46;;;;;;;13.18;11.30;;;5.30;53.90;;;;;;5073616;28;20233;-88
2021/03/07 09:00:16;;;;;;;13.27;9.48;;;5.40;53.60;;;;;;5074211;28;20223;-88
2021/03/07 09:02:44;;;;;;;14.45;10.77;;;5.60;53.30;;;;;;5073697;28;20199;-88
2021/03/07 09:05:27;;;;;;;13.40;10.85;;;5.50;53.20;;;;;;5073933;28;20206;-88
2021/03/07 09:08:01;;;;;;;12.43;10.50;;;5.70;53.10;;;;;;5073980;28;20203;-88
2021/03/07 09:10:33;;;;;;;14.50;10.55;;;5.80;53.00;;;;;;5072778;28;20213;-88
2021/03/07 09:13:10;;;;;;;13.52;10.52;;;5.90;52.90;;;;;;5073288;28;20611;-88
2021/03/07 09:15:39;;;;;;;12.20;10.90;;;5.80;53.40;;;;;;5073555;28;20679;-88
2021/03/07 09:18:06;;;;;;;13.85;10.52;;;6.00;53.20;;;;;;5073421;28;20548;-88
2021/03/07 09:20:44;;;;;;;12.02;10.25;;;6.00;53.20;;;;;;5073187;28;20223;-88
2021/03/07 09:23:32;;;;;;;11.57;10.00;;;6.20;53.70;;;;;;5073105;28;20651;-87
2021/03/07 09:26:00;;;;;;;14.27;11.27;;;6.60;53.40;;;;;;5073072;28;20257;-87
2021/03/07 09:28:35;;;;;;;14.43;9.88;;;6.70;53.40;;;;;;5054333;28;20204;-88
2021/03/07 09:31:04;;;;;;;12.10;10.82;;;7.20;53.50;;;;;;5052445;28;20229;-88
2021/03/07 09:33:31;;;;;;;16.88;11.63;;;6.50;53.00;;;;;;5052880;28;20728;-87
2021/03/07 09:36:09;;;;;;;15.75;11.75;;;6.70;53.90;;;;;;5053063;28;20204;-88
2021/03/07 09:38:48;;;;;;;14.95;11.63;;;7.00;53.40;;;;;;5053262;28;20255;-87
2021/03/07 09:41:17;;;;;;;14.95;11.52;;;6.80;53.20;;;;;;5053000;28;20204;-88
2021/03/07 09:43:46;;;;;;;12.10;10.65;;;7.00;53.40;;;;;;5052327;28;20557;-88
2021/03/07 09:46:14;;;;;;;13.20;11.00;;;6.90;53.00;;;;;;5052724;28;20669;-88
2021/03/07 09:48:41;;;;;;;12.52;9.55;;;6.50;52.30;;;;;;5052356;28;20207;-88
2021/03/07 09:51:13;;;;;;;12.73;11.10;;;6.60;52.90;;;;;;5052135;28;20200;-87
2021/03/07 09:53:42;;;;;;;13.10;9.80;;;6.80;53.90;;;;;;5052458;28;20253;-88
2021/03/07 09:56:24;;;;;;;14.07;10.98;;;6.70;53.30;;;;;;5052721;28;20212;-87
2021/03/07 09:58:50;;;;;;;15.23;11.80;;;6.80;53.30;;;;;;5052868;28;20200;-88
2021/03/07 10:01:18;;;;;;;13.93;11.18;;;6.80;52.90;;;;;;5052536;28;20200;-89
2021/03/07 10:03:44;;;;;;;11.93;10.65;;;6.70;53.30;;;;;;5052427;28;20214;-88
2021/03/07 10:06:14;;;;;;;13.77;11.13;;;7.00;53.70;;;;;;5065385;28;20204;-89
2021/03/07 10:08:42;;;;;;;12.90;10.27;;;7.10;53.30;;;;;;5057596;28;20535;-89
2021/03/07 10:11:13;;;;;;;10.63;9.52;;;7.40;52.90;;;;;;5055352;28;20196;-88
2021/03/07 10:13:40;;;;;;;13.00;11.27;;;7.70;52.50;;;;;;5052293;28;20551;-88
2021/03/07 10:16:08;;;;;;;13.13;11.35;;;8.00;52.80;;;;;;5052314;28;20346;-89
2021/03/07 10:18:36;;;;;;;14.73;11.80;;;8.00;52.00;;;;;;5052714;28;20673;-89
2021/03/07 10:21:04;;;;;;;12.30;10.90;;;7.90;52.30;;;;;;5051918;28;20220;-89
2021/03/07 10:23:33;;;;;;;14.95;12.32;;;8.00;52.50;;;;;;5051774;28;20311;-88
2021/03/07 10:26:01;;;;;;;11.88;10.68;;;8.00;52.10;;;;;;5052338;28;20204;-89
2021/03/07 10:28:29;;;;;;;12.50;11.15;;;7.90;52.50;;;;;;5071143;28;20206;-89
2021/03/07 10:31:06;;;;;;;11.95;10.63;;;8.00;52.00;;;;;;5072285;28;20203;-88
2021/03/07 10:33:32;;;;;;;13.68;11.40;;;8.20;52.50;;;;;;5071403;28;20613;-88
2021/03/07 10:36:03;;;;;;;16.55;12.90;;;8.10;52.40;;;;;;5072152;28;20199;-88
2021/03/07 10:38:31;;;;;;;15.85;13.38;;;7.50;52.00;;;;;;5072177;28;20261;-88
2021/03/07 10:40:59;;;;;;;13.43;11.52;;;7.60;52.40;;;;;;5072571;28;20223;-89
2021/03/07 10:43:25;;;;;;;15.75;13.05;;;7.40;53.20;;;;;;5071678;28;20199;-89
2021/03/07 10:45:52;;;;;;;14.13;10.70;;;7.70;53.30;;;;;;5072162;28;20206;-89
2021/03/07 10:48:19;;;;;;;14.85;11.75;;;8.10;53.70;;;;;;5072176;28;20265;-89
2021/03/07 10:50:47;;;;;;;12.65;10.88;;;8.20;52.60;;;;;;5072510;28;20199;-90
2021/03/07 10:53:16;;;;;;;12.52;10.80;;;7.80;52.00;;;;;;5071726;28;20210;-89
2021/03/07 10:55:49;;;;;;;14.20;11.18;;;7.80;52.20;;;;;;5072185;28;20208;-89
2021/03/07 10:58:15;;;;;;;18.15;11.48;;;7.70;52.20;;;;;;5072094;28;20303;-89
2021/03/07 11:00:42;;;;;;;13.98;12.38;;;7.50;52.50;;;;;;5071196;28;20220;-89
2021/03/07 11:03:21;;;;;;;12.90;11.20;;;7.80;53.90;;;;;;5060847;28;20195;-90
2021/03/07 11:05:48;;;;;;;13.52;11.27;;;8.10;53.70;;;;;;5050403;28;20206;-88
2021/03/07 11:08:15;;;;;;;20.17;11.90;;;8.50;52.40;;;;;;5051493;28;20200;-88
2021/03/07 11:10:44;;;;;;;14.05;11.52;;;8.10;51.90;;;;;;5051519;28;20200;-88
2021/03/07 11:13:11;;;;;;;14.20;11.48;;;8.20;52.60;;;;;;5051260;28;20211;-89
2021/03/07 11:15:40;;;;;;;15.02;11.93;;;8.40;51.90;;;;;;5051382;28;20262;-88
2021/03/07 11:18:11;;;;;;;12.95;11.63;;;8.60;51.50;;;;;;5051723;28;20257;-88
2021/03/07 11:20:38;;;;;;;14.82;12.45;;;8.60;51.30;;;;;;5051154;28;20231;-88
2021/03/07 11:23:04;;;;;;;13.35;11.27;;;8.70;51.10;;;;;;5051323;28;20212;-89
2021/03/07 11:25:32;;;;;;;15.52;11.60;;;8.60;50.90;;;;;;5050968;28;20614;-88
2021/03/07 11:27:58;;;;;;;15.85;12.35;;;8.70;50.90;;;;;;5064912;28;20195;-90
2021/03/07 11:30:25;;;;;;;13.60;12.18;;;8.50;51.20;;;;;;5071181;28;20218;-87
2021/03/07 11:32:52;;;;;;;15.00;11.85;;;8.60;51.70;;;;;;5069532;28;20207;-88
2021/03/07 11:35:19;;;;;;;11.68;10.25;;;8.70;51.60;;;;;;5070854;28;20203;-88
2021/03/07 11:38:06;;;;;;;12.45;11.02;;;8.80;51.30;;;;;;5063229;28;20216;-89
2021/03/07 11:40:38;;;;;;;13.27;11.43;;;8.50;51.30;;;;;;5051214;28;20681;-88
2021/03/07 11:43:05;;;;;;;13.35;11.43;;;8.70;51.60;;;;;;5050591;28;20214;-87
2021/03/07 11:45:32;;;;;;;13.63;11.73;;;8.90;51.00;;;;;;5051087;28;20208;-88
2021/03/07 11:47:58;;;;;;;12.10;10.85;;;8.80;50.90;;;;;;5050838;28;20311;-88
2021/03/07 11:50:25;;;;;;;13.63;10.90;;;9.10;50.90;;;;;;5050689;28;20196;-87
2021/03/07 11:52:52;;;;;;;14.45;11.57;;;8.30;50.60;;;;;;5050563;28;20235;-87
2021/03/07 11:55:18;;;;;;;13.80;11.75;;;8.50;51.50;;;;;;5050570;28;20211;-88
2021/03/07 11:57:46;;;;;;;13.80;12.32;;;8.50;51.20;;;;;;5050349;28;20203;-87
2021/03/07 12:00:13;;;;;;;13.57;11.43;;;8.80;51.60;;;;;;5050352;28;20223;-88
2021/03/07 12:02:40;;;;;;;16.08;12.10;;;8.90;50.80;;;;;;5049878;28;20222;-87
2021/03/07 12:05:08;;;;;;;13.88;12.35;;;8.90;50.50;;;;;;5051225;28;20208;-88
2021/03/07 12:07:34;;;;;;;13.68;11.57;;;8.80;51.00;;;;;;5059670;28;20250;-87
2021/03/07 12:10:01;;;;;;;13.65;11.32;;;8.90;50.70;;;;;;5054867;28;20726;-88
2021/03/07 12:12:27;;;;;;;12.43;11.00;;;8.90;50.90;;;;;;5063817;28;20199;-86
2021/03/07 12:14:54;;;;;;;12.48;10.60;;;8.60;50.90;;;;;;5061397;28;20207;-87
2021/03/07 12:17:24;;;;;;;13.25;10.65;;;8.40;51.20;;;;;;5060815;28;20247;-87
2021/03/07 12:19:50;;;;;;;14.30;10.88;;;8.60;50.90;;;;;;5070592;28;20211;-87
2021/03/07 12:22:17;;;;;;;14.15;11.15;;;8.70;51.40;;;;;;5060230;28;20203;-87
2021/03/07 12:24:43;;;;;;;13.38;10.98;;;8.90;50.60;;;;;;5065749;28;20219;-87
2021/03/07 12:27:10;;;;;;;15.30;10.27;;;8.50;50.40;;;;;;5073648;28;20203;-86
2021/03/07 12:29:37;;;;;;;12.73;11.32;;;8.50;50.80;;;;;;5073651;28;20738;-87
2021/03/07 12:32:05;;;;;;;14.40;10.38;;;8.70;51.10;;;;;;5073136;28;20199;-86
2021/03/07 12:34:33;;;;;;;13.75;11.45;;;8.70;50.50;;;;;;5073504;28;20218;-87
2021/03/07 12:36:59;;;;;;;12.45;10.05;;;8.90;49.60;;;;;;5074084;28;20564;-87
2021/03/07 12:39:26;;;;;;;12.07;10.38;;;9.00;49.50;;;;;;5073754;28;20215;-86
2021/03/07 12:41:53;;;;;;;11.75;10.50;;;9.20;50.20;;;;;;5073948;28;20207;-87
2021/03/07 12:44:20;;;;;;;10.60;9.35;;;8.90;49.90;;;;;;5073213;28;20203;-87
2021/03/07 12:46:47;;;;;;;15.07;10.52;;;9.00;50.10;;;;;;5073817;28;20210;-87
2021/03/07 12:49:14;;;;;;;14.25;11.60;;;9.10;50.40;;;;;;5073426;28;20249;-86
2021/03/07 12:51:41;;;;;;;12.27;11.02;;;9.10;50.00;;;;;;5074484;28;20260;-87
2021/03/07 12:54:08;;;;;;;13.30;11.43;;;9.30;50.50;;;;;;5073768;28;20257;-87